Time;durP1;ratioP1;P1;durP2;ratioP2;P2;SDS_P1;SDS_P2;PMS_P1;PMS_P2;Temp;Humidity;BMP_temperature;BMP_pressure;BME280_temperature;BME280_humidity;BME280_pressure;Samples;Min_cycle;Max_cycle;Signal;HPM_P1;HPM_P2
2021/12/19 00:10:28;;;;;;;29.57;19.33;;;8.60;99.90;;;;;;5054426;28;20114;-82
2021/12/19 00:12:55;;;;;;;33.53;22.07;;;8.60;99.90;;;;;;5037618;28;20032;-82
2021/12/19 00:15:21;;;;;;;29.07;20.00;;;8.60;99.90;;;;;;5054105;28;20119;-82
2021/12/19 00:17:47;;;;;;;28.10;18.67;;;8.60;99.90;;;;;;5037495;28;20124;-82
2021/12/19 00:20:13;;;;;;;36.87;22.90;;;8.60;99.90;;;;;;5053663;28;20063;-83
2021/12/19 00:22:39;;;;;;;33.10;20.60;;;8.50;99.90;;;;;;5054089;28;20155;-83
2021/12/19 00:25:06;;;;;;;29.70;19.13;;;8.50;99.90;;;;;;5053834;28;20100;-82
2021/12/19 00:27:32;;;;;;;30.90;19.07;;;8.60;99.90;;;;;;5053790;28;20487;-81
2021/12/19 00:29:58;;;;;;;31.83;19.37;;;8.50;99.90;;;;;;5036901;28;20075;-81
2021/12/19 00:32:24;;;;;;;33.20;21.00;;;8.60;99.90;;;;;;5053524;28;20033;-82
2021/12/19 00:34:51;;;;;;;29.10;18.00;;;8.60;99.90;;;;;;5037066;28;20040;-83
2021/12/19 00:37:19;;;;;;;27.90;18.27;;;8.60;99.90;;;;;;5053567;28;20036;-80
2021/12/19 00:39:45;;;;;;;29.30;19.87;;;8.50;99.90;;;;;;5055087;28;20086;-82
2021/12/19 00:42:11;;;;;;;29.93;19.37;;;8.50;99.90;;;;;;5054598;28;20048;-83
2021/12/19 00:44:38;;;;;;;31.83;21.57;;;8.50;99.90;;;;;;5053201;28;20087;-83
2021/12/19 00:47:07;;;;;;;27.63;17.63;;;8.60;99.90;;;;;;5037616;28;20029;-83
2021/12/19 00:49:34;;;;;;;29.73;19.90;;;8.60;99.90;;;;;;5053233;28;20071;-83
2021/12/19 00:52:00;;;;;;;26.03;17.80;;;8.60;99.90;;;;;;5054169;28;20029;-83
2021/12/19 00:54:25;;;;;;;28.20;19.30;;;8.60;99.90;;;;;;5053022;28;20025;-83
2021/12/19 00:56:51;;;;;;;26.73;18.00;;;8.60;99.90;;;;;;5053457;28;20476;-83
2021/12/19 00:59:17;;;;;;;31.70;20.73;;;8.60;99.90;;;;;;5054468;28;20362;-84
2021/12/19 01:01:44;;;;;;;26.10;17.83;;;8.60;99.90;;;;;;5036569;28;20037;-83
2021/12/19 01:04:14;;;;;;;29.93;19.83;;;8.60;99.90;;;;;;5036584;28;20354;-84
2021/12/19 01:06:41;;;;;;;27.07;18.43;;;8.60;99.90;;;;;;5052780;28;20107;-83
2021/12/19 01:09:08;;;;;;;24.50;17.57;;;8.60;99.90;;;;;;5052821;28;20108;-84
2021/12/19 01:11:35;;;;;;;27.00;19.10;;;8.50;99.90;;;;;;5053727;28;20041;-84
2021/12/19 01:14:02;;;;;;;26.07;18.30;;;8.60;99.90;;;;;;5054285;28;20028;-84
2021/12/19 01:16:27;;;;;;;22.97;16.53;;;8.60;99.90;;;;;;5053638;28;20480;-84
2021/12/19 01:18:53;;;;;;;24.43;16.57;;;8.60;99.90;;;;;;5053938;28;20029;-83
2021/12/19 01:21:19;;;;;;;26.20;17.50;;;8.60;99.90;;;;;;5036306;28;20033;-83
2021/12/19 01:23:45;;;;;;;23.53;15.43;;;8.60;99.90;;;;;;5054255;28;20437;-84
2021/12/19 01:26:10;;;;;;;27.37;18.00;;;8.50;99.90;;;;;;5019526;28;20119;-84
2021/12/19 01:28:36;;;;;;;25.27;17.53;;;8.50;99.90;;;;;;5052483;28;20029;-83
2021/12/19 01:31:02;;;;;;;25.47;16.97;;;8.60;99.90;;;;;;5053030;28;20079;-84
2021/12/19 01:33:28;;;;;;;25.60;17.40;;;8.50;99.90;;;;;;5035806;28;20040;-83
2021/12/19 01:35:54;;;;;;;23.23;16.40;;;8.50;99.90;;;;;;5054357;28;20107;-83
2021/12/19 01:38:20;;;;;;;25.10;16.17;;;8.60;99.90;;;;;;5053699;28;20464;-84
2021/12/19 01:40:45;;;;;;;27.17;18.00;;;8.60;99.90;;;;;;5052934;28;20496;-82
2021/12/19 01:43:11;;;;;;;25.47;17.40;;;8.50;99.90;;;;;;5052451;28;20037;-83
2021/12/19 01:45:39;;;;;;;22.43;15.10;;;8.60;99.90;;;;;;5052139;28;20057;-82
2021/12/19 01:48:11;;;;;;;20.20;14.00;;;8.50;99.90;;;;;;5053385;28;20461;-83
2021/12/19 01:50:38;;;;;;;20.73;14.70;;;8.50;99.90;;;;;;5053117;28;20029;-83
2021/12/19 01:53:06;;;;;;;24.73;16.03;;;8.50;99.90;;;;;;5053247;28;20025;-83
2021/12/19 01:55:32;;;;;;;23.07;15.63;;;8.50;99.90;;;;;;5053157;28;20025;-83
2021/12/19 01:57:59;;;;;;;22.30;14.87;;;8.50;99.90;;;;;;5053341;28;20151;-83
2021/12/19 02:00:29;;;;;;;22.97;15.23;;;8.50;99.90;;;;;;5053726;28;20033;-83
2021/12/19 02:02:56;;;;;;;23.87;14.93;;;8.40;99.90;;;;;;5052654;28;20017;-84
2021/12/19 02:05:22;;;;;;;24.13;15.53;;;8.50;99.90;;;;;;5053273;28;20029;-84
2021/12/19 02:07:49;;;;;;;22.07;15.00;;;8.50;99.90;;;;;;5052291;28;20029;-83
2021/12/19 02:10:19;;;;;;;19.83;13.27;;;8.40;99.90;;;;;;5053333;28;20032;-82
2021/12/19 02:12:47;;;;;;;17.67;12.17;;;8.40;99.90;;;;;;5053242;28;20063;-83
2021/12/19 02:15:20;;;;;;;17.73;12.50;;;8.30;99.90;;;;;;5036469;28;20031;-83
2021/12/19 02:17:46;;;;;;;16.95;11.43;;;8.30;99.90;;;;;;5052317;28;20017;-83
2021/12/19 02:20:13;;;;;;;19.00;12.57;;;8.30;99.90;;;;;;5053736;28;20074;-83
2021/12/19 02:22:39;;;;;;;18.47;10.83;;;8.30;99.90;;;;;;5052850;28;20096;-83
2021/12/19 02:25:06;;;;;;;16.80;10.57;;;8.30;99.90;;;;;;5055706;28;20120;-82
2021/12/19 02:27:32;;;;;;;17.23;10.30;;;8.40;99.90;;;;;;5055735;28;20077;-82
2021/12/19 02:29:58;;;;;;;15.43;9.97;;;8.30;99.90;;;;;;5056039;28;20389;-83
2021/12/19 02:32:26;;;;;;;14.63;9.80;;;8.30;99.90;;;;;;5055798;28;20051;-83
2021/12/19 02:34:54;;;;;;;16.33;11.33;;;8.30;99.90;;;;;;5057050;28;20017;-83
2021/12/19 02:48:37;;;;;;;18.13;10.67;;;8.30;99.90;;;;;;5058374;28;20091;-84
2021/12/19 02:50:56;;;;;;;15.07;10.10;;;8.40;99.90;;;;;;5057976;28;20400;-83
2021/12/19 02:53:37;;;;;;;17.97;12.27;;;8.30;99.90;;;;;;5056784;28;20104;-83
2021/12/19 02:56:06;;;;;;;20.63;12.30;;;8.40;99.90;;;;;;5057483;28;20077;-83
2021/12/19 02:58:33;;;;;;;23.23;13.97;;;8.30;99.90;;;;;;5057103;28;20017;-83
2021/12/19 03:01:00;;;;;;;22.50;13.90;;;8.30;99.90;;;;;;5056707;28;20029;-82
2021/12/19 03:03:26;;;;;;;22.17;13.77;;;8.30;99.90;;;;;;5055345;28;20028;-82
2021/12/19 03:05:52;;;;;;;23.37;14.33;;;8.30;99.90;;;;;;5038509;28;20033;-83
2021/12/19 03:08:18;;;;;;;24.23;13.93;;;8.30;99.90;;;;;;5022219;28;20445;-83
2021/12/19 03:13:48;;;;;;;26.50;15.50;;;8.30;99.90;;;;;;5056336;28;20037;-83
2021/12/19 03:18:58;;;;;;;24.13;14.37;;;8.30;99.90;;;;;;5058280;28;19912;-83
2021/12/19 03:21:25;;;;;;;24.17;14.80;;;8.30;99.90;;;;;;5041114;28;20029;-82
2021/12/19 03:23:52;;;;;;;28.47;15.40;;;8.30;99.90;;;;;;5039093;28;20025;-82
2021/12/19 03:26:17;;;;;;;26.70;15.67;;;8.20;99.90;;;;;;5055719;28;20024;-83
2021/12/19 03:28:43;;;;;;;29.67;16.67;;;8.20;99.90;;;;;;5054776;28;20080;-83
2021/12/19 03:31:09;;;;;;;28.33;15.37;;;8.20;99.90;;;;;;5055051;28;20086;-83
2021/12/19 03:33:38;;;;;;;29.83;16.40;;;8.20;99.90;;;;;;5038393;28;20032;-82
2021/12/19 03:36:06;;;;;;;29.97;15.77;;;8.20;99.90;;;;;;5037645;28;20063;-82
2021/12/19 03:38:38;;;;;;;31.23;16.43;;;8.20;99.90;;;;;;5055002;28;20017;-80
2021/12/19 03:41:18;;;;;;;34.67;16.20;;;8.20;99.90;;;;;;5039499;28;20036;-82
2021/12/19 03:43:44;;;;;;;30.10;16.40;;;8.20;99.90;;;;;;5055263;28;20025;-81
2021/12/19 03:46:10;;;;;;;32.37;16.30;;;8.20;99.90;;;;;;5037836;28;20052;-81
2021/12/19 03:48:36;;;;;;;32.30;17.20;;;8.10;99.90;;;;;;5055979;28;20372;-81
2021/12/19 03:51:01;;;;;;;27.73;15.67;;;8.10;99.90;;;;;;5054610;28;20033;-81
2021/12/19 03:53:27;;;;;;;32.93;16.27;;;8.10;99.90;;;;;;5054375;28;20396;-82
2021/12/19 03:55:53;;;;;;;31.43;16.33;;;8.10;99.90;;;;;;5021003;28;20095;-82
2021/12/19 03:58:19;;;;;;;29.93;15.80;;;8.10;99.90;;;;;;5037632;28;20028;-82
2021/12/19 04:00:47;;;;;;;32.13;17.03;;;8.10;99.90;;;;;;5054231;28;20025;-80
2021/12/19 04:03:18;;;;;;;28.87;15.97;;;8.10;99.90;;;;;;5038311;28;20473;-82
2021/12/19 04:05:45;;;;;;;31.60;16.63;;;8.20;99.90;;;;;;5038641;28;20025;-81
2021/12/19 04:08:12;;;;;;;29.70;16.27;;;8.10;99.90;;;;;;5037896;28;20056;-82
2021/12/19 04:10:37;;;;;;;33.73;16.90;;;8.20;99.90;;;;;;5054008;28;20083;-82
2021/12/19 04:13:03;;;;;;;26.50;14.37;;;8.20;99.90;;;;;;5055454;28;20074;-82
2021/12/19 04:15:29;;;;;;;32.43;16.07;;;8.10;99.90;;;;;;5037217;28;20026;-82
2021/12/19 04:17:55;;;;;;;29.83;15.03;;;8.10;99.90;;;;;;5054046;28;20116;-82
2021/12/19 04:20:20;;;;;;;28.63;14.83;;;8.10;99.90;;;;;;5054274;28;20044;-82
2021/12/19 04:22:48;;;;;;;31.20;16.27;;;8.10;99.90;;;;;;5054505;28;20027;-81
2021/12/19 04:25:14;;;;;;;28.70;15.63;;;8.10;99.90;;;;;;5037911;28;20186;-81
2021/12/19 04:27:40;;;;;;;30.83;15.73;;;8.00;99.90;;;;;;5055534;28;20476;-81
2021/12/19 04:30:08;;;;;;;31.70;15.37;;;8.00;99.90;;;;;;5054904;28;20079;-81
2021/12/19 04:32:40;;;;;;;28.03;14.87;;;8.00;99.90;;;;;;5054196;28;20499;-81
2021/12/19 04:35:08;;;;;;;34.50;15.70;;;7.90;99.90;;;;;;5055861;28;20417;-81
2021/12/19 04:40:26;;;;;;;31.77;15.27;;;8.00;99.90;;;;;;5054557;28;20488;-81
2021/12/19 04:53:33;;;;;;;29.73;14.63;;;8.10;99.90;;;;;;5057057;28;20037;-80
2021/12/19 05:03:49;;;;;;;31.63;14.50;;;8.00;99.90;;;;;;5068785;28;20100;-80
2021/12/19 05:14:16;;;;;;;35.00;15.40;;;7.90;99.90;;;;;;5039595;28;20187;-81
2021/12/19 05:16:44;;;;;;;30.67;14.43;;;7.90;99.90;;;;;;5038322;28;20052;-80
2021/12/19 05:21:45;;;;;;;30.17;14.50;;;7.80;99.90;;;;;;5053046;28;20125;-81
2021/12/19 05:27:15;;;;;;;32.57;15.53;;;7.80;99.90;;;;;;5040279;28;20041;-81
2021/12/19 05:29:41;;;;;;;31.43;15.40;;;7.70;99.90;;;;;;5051326;28;20087;-81
2021/12/19 05:32:07;;;;;;;29.23;14.97;;;7.70;99.90;;;;;;5051993;28;20392;-81
2021/12/19 05:34:33;;;;;;;34.03;15.87;;;7.70;99.90;;;;;;5036672;28;20511;-80
2021/12/19 05:45:14;;;;;;;27.17;13.17;;;7.80;99.90;;;;;;5052571;28;20060;-80
2021/12/19 05:47:46;;;;;;;28.80;14.57;;;7.70;99.90;;;;;;5036091;28;20086;-79
2021/12/19 05:50:13;;;;;;;30.37;15.37;;;7.70;99.90;;;;;;5036510;28;20492;-79
2021/12/19 05:52:39;;;;;;;31.27;15.73;;;7.80;99.90;;;;;;5052078;28;20082;-79
2021/12/19 05:55:06;;;;;;;29.73;16.23;;;7.80;99.90;;;;;;5053284;28;20028;-79
2021/12/19 05:57:32;;;;;;;30.83;15.67;;;7.80;99.90;;;;;;5051682;28;20030;-80
2021/12/19 05:59:58;;;;;;;31.00;15.77;;;7.80;99.90;;;;;;5051925;28;20033;-79
2021/12/19 06:02:25;;;;;;;32.57;15.70;;;7.80;99.90;;;;;;5052057;28;20033;-79
2021/12/19 06:04:51;;;;;;;30.50;15.43;;;7.70;99.90;;;;;;5053402;28;20114;-80
2021/12/19 06:07:16;;;;;;;29.37;15.73;;;7.70;99.90;;;;;;5052057;28;20036;-79
2021/12/19 06:09:42;;;;;;;25.87;13.47;;;7.70;99.90;;;;;;5051944;28;20029;-80
2021/12/19 06:12:08;;;;;;;20.23;11.00;;;7.70;99.90;;;;;;5053249;28;20033;-80
2021/12/19 06:14:34;;;;;;;21.90;10.93;;;7.60;99.90;;;;;;5053817;28;20473;-79
2021/12/19 06:17:02;;;;;;;19.77;11.17;;;7.60;99.90;;;;;;5035518;28;20029;-79
2021/12/19 06:19:28;;;;;;;15.73;9.43;;;7.50;99.90;;;;;;5052093;28;20029;-79
2021/12/19 06:21:53;;;;;;;16.67;9.10;;;7.60;99.90;;;;;;5051764;28;20051;-80
2021/12/19 06:24:20;;;;;;;18.57;8.83;;;7.60;99.90;;;;;;5035383;28;20026;-78
2021/12/19 06:26:45;;;;;;;18.80;9.20;;;7.60;99.90;;;;;;5053447;28;20037;-78
2021/12/19 06:29:11;;;;;;;17.23;8.23;;;7.60;99.90;;;;;;5052518;28;20029;-79
2021/12/19 06:31:37;;;;;;;18.33;8.60;;;7.60;99.90;;;;;;5052140;28;20033;-80
2021/12/19 06:34:03;;;;;;;15.43;7.80;;;7.50;99.90;;;;;;5051748;28;20039;-79
2021/12/19 06:36:29;;;;;;;13.70;6.20;;;7.60;99.90;;;;;;5052072;28;20025;-79
2021/12/19 06:38:55;;;;;;;12.77;5.47;;;7.60;99.90;;;;;;5051730;28;20453;-79
2021/12/19 06:41:21;;;;;;;11.37;5.93;;;7.70;99.90;;;;;;5052953;28;20036;-79
2021/12/19 06:43:47;;;;;;;8.23;4.50;;;7.70;99.90;;;;;;5053780;28;20029;-79
2021/12/19 06:46:14;;;;;;;9.30;4.60;;;7.60;99.90;;;;;;5051714;28;20049;-79
2021/12/19 06:48:39;;;;;;;7.70;4.30;;;7.60;99.90;;;;;;5053011;28;20029;-79
2021/12/19 06:51:05;;;;;;;7.30;4.10;;;7.70;99.90;;;;;;5051884;28;20044;-78
2021/12/19 06:53:30;;;;;;;6.43;3.10;;;7.70;99.90;;;;;;5051581;28;20032;-79
2021/12/19 06:55:58;;;;;;;5.70;2.93;;;7.70;99.90;;;;;;5053522;28;20059;-80
2021/12/19 06:58:24;;;;;;;6.60;3.00;;;7.70;99.90;;;;;;5054036;28;20100;-80
2021/12/19 07:00:50;;;;;;;5.90;3.07;;;7.60;99.90;;;;;;5035683;28;20033;-79
2021/12/19 07:03:16;;;;;;;4.43;2.90;;;7.60;99.90;;;;;;5052224;28;20029;-79
2021/12/19 07:05:43;;;;;;;6.20;3.17;;;7.60;99.90;;;;;;5051836;28;20110;-79
2021/12/19 07:08:09;;;;;;;7.60;3.10;;;7.60;99.90;;;;;;5052390;28;20025;-79
2021/12/19 07:10:34;;;;;;;5.30;2.73;;;7.60;99.90;;;;;;5037527;28;20381;-80
2021/12/19 07:13:00;;;;;;;5.77;3.03;;;7.60;99.90;;;;;;5055563;28;20124;-78
2021/12/19 07:15:27;;;;;;;5.47;3.00;;;7.60;99.90;;;;;;5038654;28;20029;-78
2021/12/19 07:17:53;;;;;;;6.13;3.43;;;7.60;99.90;;;;;;5055397;28;20108;-80
2021/12/19 07:20:19;;;;;;;6.67;4.30;;;7.60;99.90;;;;;;5057052;28;20114;-79
2021/12/19 07:22:44;;;;;;;8.17;3.73;;;7.60;99.90;;;;;;5060153;28;20025;-79
2021/12/19 07:25:10;;;;;;;9.43;4.50;;;7.60;99.90;;;;;;5061397;28;20099;-79
2021/12/19 07:27:36;;;;;;;9.97;4.53;;;7.60;99.90;;;;;;5064020;28;20446;-78
2021/12/19 07:30:03;;;;;;;9.87;4.47;;;7.70;99.90;;;;;;5056609;28;20428;-80
2021/12/19 07:32:29;;;;;;;14.33;5.00;;;7.70;99.90;;;;;;5055921;28;20477;-80
2021/12/19 07:34:54;;;;;;;8.97;4.73;;;7.60;99.90;;;;;;5055358;28;20032;-80
2021/12/19 07:37:21;;;;;;;11.23;5.27;;;7.70;99.90;;;;;;5055953;28;20048;-80
2021/12/19 07:39:59;;;;;;;11.80;5.40;;;7.60;99.90;;;;;;5054343;28;20040;-80
2021/12/19 07:42:24;;;;;;;14.27;6.43;;;7.60;99.90;;;;;;5055884;28;20017;-80
2021/12/19 07:44:50;;;;;;;11.93;6.27;;;7.60;99.90;;;;;;5054266;28;20052;-79
2021/12/19 07:47:16;;;;;;;14.97;6.33;;;7.60;99.90;;;;;;5054991;28;20029;-79
2021/12/19 07:49:42;;;;;;;14.43;6.43;;;7.60;99.90;;;;;;5054457;28;20465;-80
2021/12/19 07:52:08;;;;;;;14.77;6.87;;;7.60;99.90;;;;;;5037356;28;20021;-81
2021/12/19 07:54:33;;;;;;;15.60;6.63;;;7.60;99.90;;;;;;5054692;28;20037;-80
2021/12/19 07:56:59;;;;;;;14.53;6.70;;;7.70;99.90;;;;;;5054759;28;20025;-81
2021/12/19 07:59:25;;;;;;;13.00;6.20;;;7.60;99.90;;;;;;5056468;28;20035;-80
2021/12/19 08:01:51;;;;;;;14.77;6.87;;;7.70;99.90;;;;;;5054803;28;20094;-80
2021/12/19 08:04:16;;;;;;;15.47;6.53;;;7.70;99.90;;;;;;5055855;28;20036;-79
2021/12/19 08:06:42;;;;;;;17.33;6.43;;;7.70;99.90;;;;;;5038032;28;20028;-80
2021/12/19 08:09:10;;;;;;;13.73;6.13;;;7.60;99.90;;;;;;5037536;28;20036;-80
2021/12/19 08:11:42;;;;;;;15.27;5.90;;;7.60;99.90;;;;;;5054257;28;20041;-79
2021/12/19 08:14:17;;;;;;;17.23;6.30;;;7.60;99.90;;;;;;5053842;28;20060;-80
2021/12/19 08:16:44;;;;;;;15.70;6.10;;;7.70;99.90;;;;;;5038316;28;20028;-79
2021/12/19 08:19:12;;;;;;;13.40;5.87;;;7.70;99.90;;;;;;5053984;28;20112;-80
2021/12/19 08:21:38;;;;;;;18.77;7.10;;;7.70;99.90;;;;;;5052970;28;20021;-80
2021/12/19 08:24:10;;;;;;;13.73;6.00;;;7.70;99.90;;;;;;5053816;28;20043;-81
2021/12/19 08:26:36;;;;;;;13.37;6.50;;;7.70;99.90;;;;;;5038238;28;20025;-80
2021/12/19 08:29:02;;;;;;;15.37;6.90;;;7.80;99.90;;;;;;5055885;28;20104;-79
2021/12/19 08:31:28;;;;;;;14.37;7.17;;;7.80;99.90;;;;;;5053659;28;20037;-79
2021/12/19 08:33:54;;;;;;;17.33;7.67;;;7.70;99.90;;;;;;5053560;28;20079;-79
2021/12/19 08:36:20;;;;;;;19.30;7.83;;;7.70;99.90;;;;;;5053517;28;20021;-79
2021/12/19 08:38:47;;;;;;;19.10;8.27;;;7.80;99.90;;;;;;5053542;28;20026;-79
2021/12/19 08:41:14;;;;;;;16.47;7.83;;;7.80;99.90;;;;;;5037712;28;20033;-79
2021/12/19 08:43:39;;;;;;;19.70;7.90;;;7.90;99.90;;;;;;5053287;28;20036;-79
2021/12/19 08:46:08;;;;;;;17.80;9.10;;;7.90;99.90;;;;;;5053390;28;20053;-79
2021/12/19 08:48:34;;;;;;;18.87;9.13;;;7.90;99.90;;;;;;5054417;28;20032;-78
2021/12/19 08:51:00;;;;;;;17.37;9.40;;;7.90;99.90;;;;;;5053397;28;20045;-79
2021/12/19 08:53:26;;;;;;;19.90;9.67;;;7.80;99.90;;;;;;5053643;28;20032;-78
2021/12/19 08:55:51;;;;;;;18.33;9.60;;;7.80;99.90;;;;;;5052895;28;20495;-79
2021/12/19 08:58:17;;;;;;;20.40;10.83;;;7.90;99.90;;;;;;5037266;28;20035;-79
2021/12/19 09:00:43;;;;;;;21.43;11.10;;;7.90;99.90;;;;;;5020069;28;20048;-78
2021/12/19 09:03:09;;;;;;;19.73;11.07;;;7.90;99.90;;;;;;5037365;28;20035;-83
2021/12/19 09:05:35;;;;;;;23.30;11.93;;;8.00;99.90;;;;;;5037471;28;20035;-78
2021/12/19 09:08:03;;;;;;;18.83;12.07;;;8.00;99.90;;;;;;5055552;28;20025;-76
2021/12/19 09:10:29;;;;;;;24.00;13.43;;;8.00;99.90;;;;;;5037344;28;20059;-78
2021/12/19 09:12:55;;;;;;;24.23;13.57;;;8.00;99.90;;;;;;5020815;28;20037;-78
2021/12/19 09:15:21;;;;;;;24.60;15.50;;;8.10;99.90;;;;;;5037180;28;20392;-78
2021/12/19 09:17:47;;;;;;;21.90;13.97;;;8.10;99.90;;;;;;5053848;28;20029;-78
2021/12/19 09:20:15;;;;;;;33.03;18.60;;;8.10;99.90;;;;;;5053633;28;20087;-79
2021/12/19 09:22:41;;;;;;;26.50;15.73;;;8.10;99.90;;;;;;5053903;28;20029;-79
2021/12/19 09:25:08;;;;;;;28.37;15.47;;;8.10;99.90;;;;;;5054601;28;20032;-79
2021/12/19 09:27:34;;;;;;;35.20;19.77;;;8.10;99.90;;;;;;5053715;28;20082;-80
2021/12/19 09:29:59;;;;;;;35.37;20.37;;;8.10;99.90;;;;;;5053944;28;20455;-77
2021/12/19 09:32:27;;;;;;;32.30;18.97;;;8.20;99.90;;;;;;5036502;28;20089;-80
2021/12/19 09:34:53;;;;;;;28.73;17.37;;;8.20;99.90;;;;;;5053301;28;20025;-78
2021/12/19 09:37:19;;;;;;;30.20;18.63;;;8.20;99.90;;;;;;5053251;28;20142;-78
2021/12/19 09:39:46;;;;;;;29.23;18.07;;;8.20;99.90;;;;;;5036236;28;20029;-78
2021/12/19 09:42:14;;;;;;;28.33;18.47;;;8.30;99.90;;;;;;5052942;28;20029;-83
2021/12/19 09:44:40;;;;;;;42.17;27.10;;;8.30;99.90;;;;;;5052808;28;20029;-78
2021/12/19 09:47:07;;;;;;;39.27;24.70;;;8.40;99.90;;;;;;5051860;28;20079;-78
2021/12/19 09:49:35;;;;;;;64.43;35.57;;;8.50;99.90;;;;;;5035668;28;20094;-79
2021/12/19 09:52:05;;;;;;;70.07;34.40;;;8.70;99.90;;;;;;5035802;28;20175;-77
2021/12/19 09:54:32;;;;;;;53.93;27.60;;;8.70;99.90;;;;;;5052487;28;20035;-79
2021/12/19 09:56:58;;;;;;;70.67;32.20;;;8.80;99.90;;;;;;5052013;28;20473;-78
2021/12/19 09:59:24;;;;;;;71.87;33.80;;;8.80;99.90;;;;;;5051820;28;20029;-78
2021/12/19 10:01:52;;;;;;;74.93;32.20;;;8.90;99.90;;;;;;5052325;28;20064;-80
2021/12/19 10:04:37;;;;;;;57.50;28.40;;;9.10;99.90;;;;;;5052714;28;20083;-78
2021/12/19 10:07:12;;;;;;;52.67;26.03;;;9.20;99.90;;;;;;5052181;28;20029;-77
2021/12/19 10:10:11;;;;;;;43.70;22.97;;;9.20;99.90;;;;;;5052970;28;20025;-76
2021/12/19 10:15:14;;;;;;;37.00;20.73;;;9.20;99.90;;;;;;5052886;28;20374;-78
2021/12/19 10:17:40;;;;;;;41.90;24.40;;;9.20;99.90;;;;;;5052917;28;20071;-78
2021/12/19 10:20:15;;;;;;;40.83;25.07;;;9.10;99.90;;;;;;5051531;28;20036;-79
2021/12/19 10:22:47;;;;;;;36.50;21.50;;;9.20;99.90;;;;;;5048765;28;20029;-79
2021/12/19 10:25:27;;;;;;;35.57;21.30;;;9.20;99.90;;;;;;5052883;28;20036;-78
2021/12/19 10:27:55;;;;;;;38.80;22.03;;;9.20;99.90;;;;;;5051844;28;20055;-78
2021/12/19 10:30:43;;;;;;;36.60;21.23;;;9.20;99.90;;;;;;5051406;28;20029;-77
2021/12/19 10:33:11;;;;;;;34.63;20.17;;;9.30;99.90;;;;;;5034836;28;20116;-77
2021/12/19 10:35:39;;;;;;;29.67;18.90;;;9.30;99.90;;;;;;5052318;28;20120;-78
2021/12/19 10:38:16;;;;;;;28.70;16.97;;;9.40;99.90;;;;;;5051790;28;20039;-79
2021/12/19 10:40:57;;;;;;;28.40;17.47;;;9.40;99.90;;;;;;5052533;28;20033;-77
2021/12/19 10:43:28;;;;;;;31.43;16.17;;;9.50;99.90;;;;;;5053410;28;20029;-79
2021/12/19 10:45:58;;;;;;;24.70;15.30;;;9.50;99.90;;;;;;5055909;28;20543;-78
2021/12/19 10:48:31;;;;;;;25.80;15.33;;;9.40;99.90;;;;;;5055390;28;20380;-78
2021/12/19 10:51:07;;;;;;;30.42;15.48;;;9.30;99.90;;;;;;5056316;28;20032;-78
2021/12/19 10:53:53;;;;;;;27.13;15.53;;;9.30;99.90;;;;;;5055081;28;20385;-78
2021/12/19 10:56:31;;;;;;;26.50;15.53;;;9.30;99.90;;;;;;5056642;28;20087;-82
2021/12/19 10:58:59;;;;;;;24.10;16.07;;;9.30;99.90;;;;;;5055178;28;20434;-77
2021/12/19 11:01:29;;;;;;;24.30;15.43;;;9.20;99.90;;;;;;5057369;28;20025;-78
2021/12/19 11:04:03;;;;;;;27.63;17.53;;;9.20;99.90;;;;;;5055812;28;20025;-79
2021/12/19 11:06:43;;;;;;;29.63;18.40;;;9.20;99.90;;;;;;5056877;28;20067;-78
2021/12/19 11:09:13;;;;;;;30.03;19.63;;;9.30;99.90;;;;;;5055799;28;20029;-80
2021/12/19 11:11:43;;;;;;;26.03;16.67;;;9.40;99.90;;;;;;5056396;28;20462;-78
2021/12/19 11:14:16;;;;;;;23.77;16.13;;;9.40;99.90;;;;;;5054518;28;20079;-79
2021/12/19 11:16:43;;;;;;;33.75;26.48;;;9.40;99.90;;;;;;5054697;28;20070;-79
2021/12/19 11:19:09;;;;;;;28.17;21.43;;;9.50;99.90;;;;;;5056349;28;20029;-79
2021/12/19 11:21:36;;;;;;;24.63;17.33;;;9.40;99.90;;;;;;5054607;28;20025;-78
2021/12/19 11:24:07;;;;;;;27.07;19.77;;;9.40;99.90;;;;;;5055831;28;20021;-79
2021/12/19 11:26:33;;;;;;;26.30;21.60;;;9.30;99.90;;;;;;5054311;28;20032;-78
2021/12/19 11:29:01;;;;;;;18.27;13.70;;;9.30;99.90;;;;;;5055189;28;20036;-80
2021/12/19 11:31:30;;;;;;;17.00;13.00;;;9.20;99.90;;;;;;5054816;28;20503;-79
2021/12/19 11:34:24;;;;;;;17.63;13.40;;;9.20;99.90;;;;;;5054047;28;20025;-80
2021/12/19 11:37:01;;;;;;;16.77;11.57;;;9.10;99.90;;;;;;5055588;28;20048;-78
2021/12/19 11:39:31;;;;;;;17.40;12.67;;;9.10;99.90;;;;;;5054862;28;20063;-78
2021/12/19 11:42:21;;;;;;;45.37;35.37;;;9.10;99.90;;;;;;5053282;28;20081;-78
2021/12/19 11:47:36;;;;;;;29.07;20.30;;;9.10;99.90;;;;;;5053743;28;20061;-79
2021/12/19 11:50:15;;;;;;;20.13;15.07;;;9.10;99.90;;;;;;5055188;28;20052;-79
2021/12/19 11:52:40;;;;;;;20.87;14.47;;;9.10;99.90;;;;;;5037097;28;20029;-79
2021/12/19 11:55:19;;;;;;;14.57;10.47;;;9.10;99.90;;;;;;5020651;28;20090;-79
2021/12/19 11:58:07;;;;;;;19.13;15.70;;;9.10;99.90;;;;;;5052903;28;20422;-79
2021/12/19 12:00:50;;;;;;;19.80;15.30;;;9.10;99.90;;;;;;5053200;28;20028;-78
2021/12/19 12:03:15;;;;;;;;;;;9.10;99.90;;;;;;5054682;28;20025;-81
2021/12/19 12:05:48;;;;;;;24.10;16.60;;;9.10;99.90;;;;;;5053325;28;19905;-77
2021/12/19 12:08:16;;;;;;;27.02;20.73;;;9.10;99.90;;;;;;5053545;28;20025;-80
2021/12/19 12:10:55;;;;;;;15.97;12.10;;;9.10;99.90;;;;;;5053596;28;20044;-77
2021/12/19 12:13:33;;;;;;;19.57;14.47;;;9.10;99.90;;;;;;5053797;28;20037;-78
2021/12/19 12:16:32;;;;;;;7.80;6.43;;;9.10;99.90;;;;;;5054609;28;20024;-79
2021/12/19 12:19:02;;;;;;;14.83;11.53;;;9.10;99.90;;;;;;5054603;28;20358;-79
2021/12/19 12:24:15;;;;;;;10.10;8.07;;;9.00;99.90;;;;;;5055113;28;20029;-78
2021/12/19 12:26:50;;;;;;;12.17;9.17;;;8.90;99.90;;;;;;5054158;28;20139;-79
2021/12/19 12:29:16;;;;;;;17.03;12.63;;;8.90;99.90;;;;;;5053474;28;20028;-79
2021/12/19 12:31:45;;;;;;;16.50;12.07;;;9.00;99.90;;;;;;5036985;28;20108;-77
2021/12/19 12:34:14;;;;;;;12.13;9.57;;;9.00;99.90;;;;;;5053391;28;20125;-78
2021/12/19 12:36:41;;;;;;;35.60;25.63;;;9.10;99.90;;;;;;5054517;28;20025;-78
2021/12/19 12:39:14;;;;;;;15.03;10.87;;;9.10;99.90;;;;;;5054349;28;20032;-80
2021/12/19 12:44:22;;;;;;;9.40;8.33;;;9.10;99.90;;;;;;5055165;28;20112;-78
2021/12/19 12:46:50;;;;;;;10.47;9.00;;;9.10;99.90;;;;;;5052817;28;20447;-78
2021/12/19 12:49:35;;;;;;;6.33;5.00;;;9.10;99.90;;;;;;5053262;28;20355;-77
2021/12/19 12:52:05;;;;;;;11.30;8.10;;;9.20;99.90;;;;;;5054360;28;20036;-79
2021/12/19 12:54:37;;;;;;;10.93;7.77;;;9.20;99.90;;;;;;5053020;28;20380;-82
2021/12/19 12:57:11;;;;;;;12.68;9.13;;;9.20;99.90;;;;;;5052781;28;20036;-78
2021/12/19 12:59:41;;;;;;;7.50;6.40;;;9.20;99.90;;;;;;5053046;28;20179;-77
2021/12/19 13:02:20;;;;;;;10.27;8.90;;;9.10;99.90;;;;;;5055303;28;20029;-78
2021/12/19 13:04:48;;;;;;;10.60;7.83;;;9.20;99.90;;;;;;5053482;28;20033;-77
2021/12/19 13:07:16;;;;;;;42.97;31.63;;;9.20;99.90;;;;;;5035966;28;20036;-79
2021/12/19 13:09:46;;;;;;;19.50;15.73;;;9.20;99.90;;;;;;5054558;28;20151;-79
2021/12/19 13:12:47;;;;;;;14.53;11.10;;;9.10;99.90;;;;;;5053501;28;20087;-78
2021/12/19 13:15:15;;;;;;;9.93;8.43;;;9.10;99.90;;;;;;5032742;28;20041;-79
2021/12/19 13:17:52;;;;;;;13.60;10.43;;;9.20;99.90;;;;;;5044602;28;20037;-77
2021/12/19 13:20:24;;;;;;;9.80;8.13;;;9.20;99.90;;;;;;5036985;28;20032;-80
2021/12/19 13:22:51;;;;;;;10.15;8.23;;;9.20;99.90;;;;;;5055204;28;20039;-78
2021/12/19 13:25:29;;;;;;;10.37;8.13;;;9.20;99.90;;;;;;5054155;28;20033;-79
2021/12/19 13:28:03;;;;;;;9.80;7.27;;;9.20;99.90;;;;;;5054400;28;20032;-78
2021/12/19 13:30:41;;;;;;;9.17;7.43;;;9.20;99.90;;;;;;5053833;28;20066;-81
2021/12/19 13:33:21;;;;;;;5.20;4.00;;;9.20;99.90;;;;;;5036260;28;20025;-80
2021/12/19 13:35:53;;;;;;;11.47;8.53;;;9.10;99.90;;;;;;5053295;28;20450;-78
2021/12/19 13:38:21;;;;;;;10.60;7.77;;;9.20;99.90;;;;;;5052709;28;20025;-78
2021/12/19 13:40:57;;;;;;;9.80;6.70;;;9.20;99.90;;;;;;5052488;28;20153;-78
2021/12/19 13:43:25;;;;;;;8.53;7.20;;;9.20;99.90;;;;;;5052345;28;20032;-78
2021/12/19 13:46:01;;;;;;;8.47;6.17;;;9.20;99.90;;;;;;5052237;28;20059;-79
2021/12/19 13:48:33;;;;;;;11.87;8.17;;;9.20;99.90;;;;;;5036172;28;20037;-79
2021/12/19 13:51:12;;;;;;;8.93;7.27;;;9.20;99.90;;;;;;5053028;28;20036;-78
2021/12/19 13:53:42;;;;;;;7.10;5.47;;;9.20;99.90;;;;;;5053564;28;20054;-80
2021/12/19 13:56:13;;;;;;;5.73;4.53;;;9.10;99.90;;;;;;5052970;28;20029;-78
2021/12/19 13:58:42;;;;;;;8.63;4.87;;;9.10;99.90;;;;;;5052269;28;20496;-81
2021/12/19 14:01:13;;;;;;;9.03;6.97;;;9.10;99.90;;;;;;5053248;28;20021;-79
2021/12/19 14:03:43;;;;;;;11.07;7.70;;;9.10;99.90;;;;;;5053263;28;20017;-79
2021/12/19 14:06:10;;;;;;;8.50;5.30;;;9.10;99.90;;;;;;5052257;28;20049;-79
2021/12/19 14:08:37;;;;;;;11.80;7.83;;;9.10;99.90;;;;;;5035584;28;20029;-79